sensor_id;sensor_type;location;lat;lon;timestamp;pressure;altitude;pressure_sealevel;temperature;humidity
12694;BME280;6411;58.190;12.720;2023-02-12T00:02:07;61548.94;;;-0.08;100.00
12694;BME280;6411;58.190;12.720;2023-02-12T00:04:33;61541.69;;;-0.13;100.00
12694;BME280;6411;58.190;12.720;2023-02-12T00:06:59;61542.88;;;-0.04;100.00
12694;BME280;6411;58.190;12.720;2023-02-12T00:09:24;61539.13;;;-0.13;100.00
12694;BME280;6411;58.190;12.720;2023-02-12T00:11:50;61528.16;;;-0.23;100.00
12694;BME280;6411;58.190;12.720;2023-02-12T00:14:16;61529.16;;;-0.25;100.00
12694;BME280;6411;58.190;12.720;2023-02-12T00:16:42;61534.31;;;-0.22;100.00
12694;BME280;6411;58.190;12.720;2023-02-12T00:19:08;61499.81;;;-0.55;100.00
12694;BME280;6411;58.190;12.720;2023-02-12T00:21:33;61533.41;;;-0.16;100.00
12694;BME280;6411;58.190;12.720;2023-02-12T00:24:00;61543.78;;;-0.11;100.00
12694;BME280;6411;58.190;12.720;2023-02-12T00:26:26;61548.53;;;-0.04;100.00
12694;BME280;6411;58.190;12.720;2023-02-12T00:28:51;61548.00;;;-0.04;100.00
12694;BME280;6411;58.190;12.720;2023-02-12T00:31:23;61546.84;;;-0.10;100.00
12694;BME280;6411;58.190;12.720;2023-02-12T00:33:49;61571.81;;;0.09;100.00
12694;BME280;6411;58.190;12.720;2023-02-12T00:36:17;61587.63;;;0.29;100.00
12694;BME280;6411;58.190;12.720;2023-02-12T00:38:43;61596.22;;;0.47;100.00
12694;BME280;6411;58.190;12.720;2023-02-12T00:41:10;61619.53;;;0.60;100.00
12694;BME280;6411;58.190;12.720;2023-02-12T00:43:35;61678.19;;;1.19;100.00
12694;BME280;6411;58.190;12.720;2023-02-12T00:46:01;61681.44;;;1.27;100.00
12694;BME280;6411;58.190;12.720;2023-02-12T00:48:27;61681.84;;;1.22;100.00
12694;BME280;6411;58.190;12.720;2023-02-12T00:50:52;61712.66;;;1.49;100.00
12694;BME280;6411;58.190;12.720;2023-02-12T00:53:18;61732.16;;;1.73;100.00
12694;BME280;6411;58.190;12.720;2023-02-12T00:55:44;61759.75;;;1.92;100.00
12694;BME280;6411;58.190;12.720;2023-02-12T00:58:10;61744.63;;;1.80;100.00
12694;BME280;6411;58.190;12.720;2023-02-12T01:00:36;61740.53;;;1.81;100.00
12694;BME280;6411;58.190;12.720;2023-02-12T01:03:02;61748.34;;;1.86;100.00
12694;BME280;6411;58.190;12.720;2023-02-12T01:05:29;61740.06;;;1.83;100.00
12694;BME280;6411;58.190;12.720;2023-02-12T01:07:55;61753.09;;;1.93;100.00
12694;BME280;6411;58.190;12.720;2023-02-12T01:10:20;61761.38;;;1.96;100.00
12694;BME280;6411;58.190;12.720;2023-02-12T01:12:47;61772.97;;;2.09;100.00
12694;BME280;6411;58.190;12.720;2023-02-12T01:15:13;61772.50;;;2.11;100.00
12694;BME280;6411;58.190;12.720;2023-02-12T01:17:39;61781.34;;;2.17;100.00
12694;BME280;6411;58.190;12.720;2023-02-12T01:20:06;61804.41;;;2.40;100.00
12694;BME280;6411;58.190;12.720;2023-02-12T01:22:36;61793.50;;;2.34;100.00
12694;BME280;6411;58.190;12.720;2023-02-12T01:25:03;61792.91;;;2.31;100.00
12694;BME280;6411;58.190;12.720;2023-02-12T01:27:29;61822.78;;;2.60;100.00
12694;BME280;6411;58.190;12.720;2023-02-12T01:29:55;61829.03;;;2.63;100.00
12694;BME280;6411;58.190;12.720;2023-02-12T01:32:21;61818.59;;;2.56;100.00
12694;BME280;6411;58.190;12.720;2023-02-12T01:34:47;61834.72;;;2.66;100.00
12694;BME280;6411;58.190;12.720;2023-02-12T01:37:12;61816.53;;;2.56;100.00
12694;BME280;6411;58.190;12.720;2023-02-12T01:39:38;61839.97;;;2.71;100.00
12694;BME280;6411;58.190;12.720;2023-02-12T01:42:04;61857.84;;;2.91;100.00
12694;BME280;6411;58.190;12.720;2023-02-12T01:44:32;61855.81;;;2.91;100.00
12694;BME280;6411;58.190;12.720;2023-02-12T01:47:01;61853.63;;;2.84;100.00
12694;BME280;6411;58.190;12.720;2023-02-12T01:52:13;61857.34;;;2.90;100.00
12694;BME280;6411;58.190;12.720;2023-02-12T01:54:40;61862.09;;;2.97;100.00
12694;BME280;6411;58.190;12.720;2023-02-12T01:57:08;61884.53;;;3.14;100.00
12694;BME280;6411;58.190;12.720;2023-02-12T01:59:35;61885.13;;;3.17;100.00
12694;BME280;6411;58.190;12.720;2023-02-12T02:02:02;61897.66;;;3.26;100.00
12694;BME280;6411;58.190;12.720;2023-02-12T02:04:32;61894.66;;;3.31;100.00
12694;BME280;6411;58.190;12.720;2023-02-12T02:07:03;61922.84;;;3.51;100.00
12694;BME280;6411;58.190;12.720;2023-02-12T02:09:32;61920.31;;;3.53;100.00
12694;BME280;6411;58.190;12.720;2023-02-12T02:11:59;61919.72;;;3.50;100.00
12694;BME280;6411;58.190;12.720;2023-02-12T02:14:44;61935.97;;;3.63;100.00
12694;BME280;6411;58.190;12.720;2023-02-12T02:31:19;61934.44;;;3.64;100.00
12694;BME280;6411;58.190;12.720;2023-02-12T02:33:58;61928.25;;;3.63;100.00
12694;BME280;6411;58.190;12.720;2023-02-12T02:42:43;61932.84;;;3.63;100.00
12694;BME280;6411;58.190;12.720;2023-02-12T02:44:43;61941.78;;;3.71;100.00
12694;BME280;6411;58.190;12.720;2023-02-12T02:47:13;61937.44;;;3.60;100.00
12694;BME280;6411;58.190;12.720;2023-02-12T02:49:46;61942.31;;;3.72;100.00
12694;BME280;6411;58.190;12.720;2023-02-12T02:52:19;61944.88;;;3.72;100.00
12694;BME280;6411;58.190;12.720;2023-02-12T02:54:57;61952.16;;;3.76;100.00
12694;BME280;6411;58.190;12.720;2023-02-12T02:57:29;61938.78;;;3.76;100.00
12694;BME280;6411;58.190;12.720;2023-02-12T03:00:05;61943.47;;;3.78;100.00
12694;BME280;6411;58.190;12.720;2023-02-12T03:02:36;61955.38;;;3.82;100.00
12694;BME280;6411;58.190;12.720;2023-02-12T03:05:08;61954.94;;;3.86;100.00
12694;BME280;6411;58.190;12.720;2023-02-12T03:07:58;61950.84;;;3.87;100.00
12694;BME280;6411;58.190;12.720;2023-02-12T03:10:32;61962.63;;;3.84;100.00
12694;BME280;6411;58.190;12.720;2023-02-12T03:13:41;61947.66;;;3.82;100.00
12694;BME280;6411;58.190;12.720;2023-02-12T03:19:10;61951.28;;;3.83;100.00
12694;BME280;6411;58.190;12.720;2023-02-12T03:22:00;61953.84;;;3.83;100.00
12694;BME280;6411;58.190;12.720;2023-02-12T03:24:31;61957.53;;;3.86;100.00
12694;BME280;6411;58.190;12.720;2023-02-12T03:27:15;61957.53;;;3.86;100.00
12694;BME280;6411;58.190;12.720;2023-02-12T03:29:42;61966.38;;;3.92;100.00
12694;BME280;6411;58.190;12.720;2023-02-12T03:32:35;61960.19;;;3.91;100.00
12694;BME280;6411;58.190;12.720;2023-02-12T03:35:40;61969.13;;;4.00;100.00
12694;BME280;6411;58.190;12.720;2023-02-12T03:39:07;61973.16;;;3.96;100.00
12694;BME280;6411;58.190;12.720;2023-02-12T03:46:42;61974.28;;;4.00;100.00
12694;BME280;6411;58.190;12.720;2023-02-12T03:49:25;61962.25;;;3.91;100.00
12694;BME280;6411;58.190;12.720;2023-02-12T03:51:52;61972.72;;;4.01;100.00
12694;BME280;6411;58.190;12.720;2023-02-12T03:54:20;61966.47;;;3.97;100.00
12694;BME280;6411;58.190;12.720;2023-02-12T03:57:06;61968.56;;;3.97;100.00
12694;BME280;6411;58.190;12.720;2023-02-12T03:59:34;61965.88;;;3.92;100.00
12694;BME280;6411;58.190;12.720;2023-02-12T04:02:00;61958.16;;;3.92;100.00
12694;BME280;6411;58.190;12.720;2023-02-12T04:04:26;61972.16;;;3.98;100.00
12694;BME280;6411;58.190;12.720;2023-02-12T04:06:53;61965.97;;;3.97;100.00
12694;BME280;6411;58.190;12.720;2023-02-12T04:09:19;61969.66;;;4.00;100.00
12694;BME280;6411;58.190;12.720;2023-02-12T04:12:19;61970.69;;;4.01;100.00
12694;BME280;6411;58.190;12.720;2023-02-12T04:18:21;61982.63;;;4.05;100.00
12694;BME280;6411;58.190;12.720;2023-02-12T04:21:02;61973.78;;;4.02;100.00
12694;BME280;6411;58.190;12.720;2023-02-12T04:31:48;61968.69;;;4.04;100.00
12694;BME280;6411;58.190;12.720;2023-02-12T04:34:22;61962.31;;;3.93;100.00
12694;BME280;6411;58.190;12.720;2023-02-12T04:37:04;61964.41;;;3.95;100.00
12694;BME280;6411;58.190;12.720;2023-02-12T04:39:36;61962.31;;;3.93;100.00
12694;BME280;6411;58.190;12.720;2023-02-12T04:42:04;61960.72;;;3.92;100.00
12694;BME280;6411;58.190;12.720;2023-02-12T04:44:32;61980.66;;;4.11;100.00
12694;BME280;6411;58.190;12.720;2023-02-12T04:46:59;61982.19;;;4.10;100.00
12694;BME280;6411;58.190;12.720;2023-02-12T04:49:26;61979.56;;;4.07;100.00
12694;BME280;6411;58.190;12.720;2023-02-12T04:51:52;61982.75;;;4.13;100.00
12694;BME280;6411;58.190;12.720;2023-02-12T04:54:18;61976.47;;;4.07;100.00
12694;BME280;6411;58.190;12.720;2023-02-12T04:56:45;61987.50;;;4.17;100.00
12694;BME280;6411;58.190;12.720;2023-02-12T04:59:11;61995.94;;;4.28;100.00
12694;BME280;6411;58.190;12.720;2023-02-12T05:01:38;61986.47;;;4.19;100.00
12694;BME280;6411;58.190;12.720;2023-02-12T05:04:04;62004.72;;;4.29;100.00
12694;BME280;6411;58.190;12.720;2023-02-12T05:06:31;62005.34;;;4.34;100.00
12694;BME280;6411;58.190;12.720;2023-02-12T05:08:58;62012.66;;;4.39;100.00
12694;BME280;6411;58.190;12.720;2023-02-12T05:11:24;62029.88;;;4.50;100.00
12694;BME280;6411;58.190;12.720;2023-02-12T05:13:51;62023.63;;;4.47;100.00
12694;BME280;6411;58.190;12.720;2023-02-12T05:16:17;62018.94;;;4.45;100.00
12694;BME280;6411;58.190;12.720;2023-02-12T05:18:44;62025.25;;;4.51;100.00
12694;BME280;6411;58.190;12.720;2023-02-12T05:21:16;62027.34;;;4.53;100.00
12694;BME280;6411;58.190;12.720;2023-02-12T05:23:42;62037.75;;;4.58;100.00
12694;BME280;6411;58.190;12.720;2023-02-12T05:26:11;62031.06;;;4.59;100.00
12694;BME280;6411;58.190;12.720;2023-02-12T05:28:37;62035.75;;;4.61;100.00
12694;BME280;6411;58.190;12.720;2023-02-12T05:31:06;62046.72;;;4.69;100.00
12694;BME280;6411;58.190;12.720;2023-02-12T05:33:31;62041.56;;;4.69;100.00
12694;BME280;6411;58.190;12.720;2023-02-12T05:36:08;62062.63;;;4.92;100.00
12694;BME280;6411;58.190;12.720;2023-02-12T05:38:34;62068.78;;;4.90;100.00
12694;BME280;6411;58.190;12.720;2023-02-12T05:41:02;62064.63;;;4.89;100.00
12694;BME280;6411;58.190;12.720;2023-02-12T05:43:28;62048.44;;;4.78;100.00
12694;BME280;6411;58.190;12.720;2023-02-12T05:45:53;62064.59;;;4.86;100.00
12694;BME280;6411;58.190;12.720;2023-02-12T05:48:19;62064.09;;;4.88;100.00
12694;BME280;6411;58.190;12.720;2023-02-12T05:50:44;62079.34;;;5.03;100.00
12694;BME280;6411;58.190;12.720;2023-02-12T05:53:09;62068.28;;;4.90;100.00
12694;BME280;6411;58.190;12.720;2023-02-12T05:55:35;62073.09;;;4.99;100.00
12694;BME280;6411;58.190;12.720;2023-02-12T05:58:00;62080.34;;;5.01;100.00
12694;BME280;6411;58.190;12.720;2023-02-12T06:00:26;62077.31;;;5.03;100.00
12694;BME280;6411;58.190;12.720;2023-02-12T06:02:51;62068.88;;;4.95;100.00
12694;BME280;6411;58.190;12.720;2023-02-12T06:05:17;62086.63;;;5.05;100.00
12694;BME280;6411;58.190;12.720;2023-02-12T06:07:42;62089.84;;;5.13;100.00
12694;BME280;6411;58.190;12.720;2023-02-12T06:10:08;62077.88;;;5.06;100.00
12694;BME280;6411;58.190;12.720;2023-02-12T06:12:34;62088.91;;;5.17;100.00
12694;BME280;6411;58.190;12.720;2023-02-12T06:14:59;62112.38;;;5.29;100.00
12694;BME280;6411;58.190;12.720;2023-02-12T06:17:25;62087.81;;;5.13;100.00
12694;BME280;6411;58.190;12.720;2023-02-12T06:19:50;62097.78;;;5.23;100.00
12694;BME280;6411;58.190;12.720;2023-02-12T06:22:16;62094.63;;;5.20;100.00
12694;BME280;6411;58.190;12.720;2023-02-12T06:24:41;62109.31;;;5.31;100.00
12694;BME280;6411;58.190;12.720;2023-02-12T06:27:06;62110.34;;;5.32;100.00
12694;BME280;6411;58.190;12.720;2023-02-12T06:29:32;62113.03;;;5.37;100.00
12694;BME280;6411;58.190;12.720;2023-02-12T06:31:57;62106.25;;;5.33;100.00
12694;BME280;6411;58.190;12.720;2023-02-12T06:34:23;62117.72;;;5.39;100.00
12694;BME280;6411;58.190;12.720;2023-02-12T06:36:48;62126.03;;;5.42;100.00
12694;BME280;6411;58.190;12.720;2023-02-12T06:39:15;62112.50;;;5.37;100.00
12694;BME280;6411;58.190;12.720;2023-02-12T06:41:41;62121.44;;;5.45;100.00
12694;BME280;6411;58.190;12.720;2023-02-12T06:44:06;62125.63;;;5.49;100.00
12694;BME280;6411;58.190;12.720;2023-02-12T06:46:33;62122.50;;;5.46;100.00
12694;BME280;6411;58.190;12.720;2023-02-12T06:48:59;62136.16;;;5.59;100.00
12694;BME280;6411;58.190;12.720;2023-02-12T06:51:26;62141.47;;;5.67;100.00
12694;BME280;6411;58.190;12.720;2023-02-12T06:53:54;62139.38;;;5.65;100.00
12694;BME280;6411;58.190;12.720;2023-02-12T06:56:21;62133.00;;;5.56;100.00
12694;BME280;6411;58.190;12.720;2023-02-12T06:58:52;62127.25;;;5.53;100.00
12694;BME280;6411;58.190;12.720;2023-02-12T07:01:21;62133.50;;;5.54;100.00
12694;BME280;6411;58.190;12.720;2023-02-12T07:04:01;62141.34;;;5.59;100.00
12694;BME280;6411;58.190;12.720;2023-02-12T07:06:27;62144.47;;;5.62;100.00
12694;BME280;6411;58.190;12.720;2023-02-12T07:08:56;62145.72;;;5.74;100.00
12694;BME280;6411;58.190;12.720;2023-02-12T07:11:24;62156.63;;;5.77;100.00
12694;BME280;6411;58.190;12.720;2023-02-12T07:13:50;62147.25;;;5.72;100.00
12694;BME280;6411;58.190;12.720;2023-02-12T07:16:16;62153.03;;;5.78;100.00
12694;BME280;6411;58.190;12.720;2023-02-12T07:18:43;62175.09;;;5.97;100.00
12694;BME280;6411;58.190;12.720;2023-02-12T07:21:09;62166.06;;;5.83;100.00
12694;BME280;6411;58.190;12.720;2023-02-12T07:23:35;62154.56;;;5.77;100.00
12694;BME280;6411;58.190;12.720;2023-02-12T07:26:04;62175.00;;;5.92;100.00
12694;BME280;6411;58.190;12.720;2023-02-12T07:28:30;62171.38;;;5.91;100.00
12694;BME280;6411;58.190;12.720;2023-02-12T07:31:05;62166.69;;;5.89;100.00
12694;BME280;6411;58.190;12.720;2023-02-12T07:33:32;62190.31;;;6.09;100.00
12694;BME280;6411;58.190;12.720;2023-02-12T07:36:02;62197.66;;;6.16;100.00
12694;BME280;6411;58.190;12.720;2023-02-12T07:38:27;62187.00;;;5.98;100.00
12694;BME280;6411;58.190;12.720;2023-02-12T07:40:53;62178.72;;;5.98;100.00
12694;BME280;6411;58.190;12.720;2023-02-12T07:43:21;62187.03;;;6.01;100.00
12694;BME280;6411;58.190;12.720;2023-02-12T07:45:46;62174.03;;;5.96;100.00
12694;BME280;6411;58.190;12.720;2023-02-12T07:48:12;62189.81;;;6.11;100.00
12694;BME280;6411;58.190;12.720;2023-02-12T07:50:37;62203.91;;;6.19;100.00
12694;BME280;6411;58.190;12.720;2023-02-12T07:53:03;62205.06;;;6.25;100.00
12694;BME280;6411;58.190;12.720;2023-02-12T07:55:28;62203.41;;;6.19;100.00
12694;BME280;6411;58.190;12.720;2023-02-12T07:57:54;62200.38;;;6.23;100.00
12694;BME280;6411;58.190;12.720;2023-02-12T08:00:19;62204.06;;;6.27;100.00
12694;BME280;6411;58.190;12.720;2023-02-12T08:02:51;62206.13;;;6.26;100.00
12694;BME280;6411;58.190;12.720;2023-02-12T08:05:17;62200.34;;;6.21;100.00
12694;BME280;6411;58.190;12.720;2023-02-12T08:07:42;62193.53;;;6.17;100.00
12694;BME280;6411;58.190;12.720;2023-02-12T08:10:08;62207.13;;;6.25;100.00
12694;BME280;6411;58.190;12.720;2023-02-12T08:12:34;62196.16;;;6.19;100.00
12694;BME280;6411;58.190;12.720;2023-02-12T08:14:59;62212.38;;;6.30;100.00
12694;BME280;6411;58.190;12.720;2023-02-12T08:17:25;62216.03;;;6.31;100.00
12694;BME280;6411;58.190;12.720;2023-02-12T08:19:50;62220.75;;;6.35;100.00
12694;BME280;6411;58.190;12.720;2023-02-12T08:22:16;62214.53;;;6.34;100.00
12694;BME280;6411;58.190;12.720;2023-02-12T08:24:41;62232.88;;;6.47;100.00
12694;BME280;6411;58.190;12.720;2023-02-12T08:27:07;62240.81;;;6.57;100.00
12694;BME280;6411;58.190;12.720;2023-02-12T08:29:33;62236.59;;;6.53;100.00
12694;BME280;6411;58.190;12.720;2023-02-12T08:32:00;62258.22;;;6.76;100.00
12694;BME280;6411;58.190;12.720;2023-02-12T08:34:29;62239.25;;;6.58;100.00
12694;BME280;6411;58.190;12.720;2023-02-12T08:36:58;62235.06;;;6.54;100.00
12694;BME280;6411;58.190;12.720;2023-02-12T08:39:25;62256.03;;;6.69;100.00
12694;BME280;6411;58.190;12.720;2023-02-12T08:41:56;62249.31;;;6.70;100.00
12694;BME280;6411;58.190;12.720;2023-02-12T08:44:23;62253.44;;;6.69;100.00
12694;BME280;6411;58.190;12.720;2023-02-12T08:46:50;62257.69;;;6.75;100.00
12694;BME280;6411;58.190;12.720;2023-02-12T08:49:21;62258.78;;;6.79;100.00
12694;BME280;6411;58.190;12.720;2023-02-12T08:51:50;62283.97;;;6.98;100.00
12694;BME280;6411;58.190;12.720;2023-02-12T08:54:18;62287.69;;;7.04;100.00
12694;BME280;6411;58.190;12.720;2023-02-12T08:56:44;62291.38;;;7.08;100.00
12694;BME280;6411;58.190;12.720;2023-02-12T08:59:11;62304.47;;;7.15;100.00
12694;BME280;6411;58.190;12.720;2023-02-12T09:01:37;62279.28;;;6.96;100.00
12694;BME280;6411;58.190;12.720;2023-02-12T09:04:05;62282.44;;;6.99;100.00
12694;BME280;6411;58.190;12.720;2023-02-12T09:06:33;62283.44;;;6.98;100.00
12694;BME280;6411;58.190;12.720;2023-02-12T09:08:59;62274.00;;;6.91;100.00
12694;BME280;6411;58.190;12.720;2023-02-12T09:11:27;62292.88;;;7.04;100.00
12694;BME280;6411;58.190;12.720;2023-02-12T09:14:04;62310.84;;;7.26;100.00
12694;BME280;6411;58.190;12.720;2023-02-12T09:16:32;62319.22;;;7.29;100.00
12694;BME280;6411;58.190;12.720;2023-02-12T09:18:58;62317.13;;;7.30;100.00
12694;BME280;6411;58.190;12.720;2023-02-12T09:21:27;62300.81;;;7.14;100.00
12694;BME280;6411;58.190;12.720;2023-02-12T09:23:53;62295.13;;;7.14;100.00
12694;BME280;6411;58.190;12.720;2023-02-12T09:26:21;62315.59;;;7.31;100.00
12694;BME280;6411;58.190;12.720;2023-02-12T09:28:48;62345.06;;;7.56;100.00
12694;BME280;6411;58.190;12.720;2023-02-12T09:31:17;62334.66;;;7.54;100.00
12694;BME280;6411;58.190;12.720;2023-02-12T09:33:45;62347.16;;;7.58;100.00
12694;BME280;6411;58.190;12.720;2023-02-12T09:36:14;62340.84;;;7.52;100.00
12694;BME280;6411;58.190;12.720;2023-02-12T09:38:40;62316.50;;;7.24;100.00
12694;BME280;6411;58.190;12.720;2023-02-12T09:46:48;62348.78;;;7.62;100.00
12694;BME280;6411;58.190;12.720;2023-02-12T09:49:40;62356.25;;;7.74;100.00
12694;BME280;6411;58.190;12.720;2023-02-12T09:52:15;62386.59;;;7.91;100.00
12694;BME280;6411;58.190;12.720;2023-02-12T09:54:42;62357.22;;;7.70;100.00
12694;BME280;6411;58.190;12.720;2023-02-12T09:57:33;62356.19;;;7.72;100.00
12694;BME280;6411;58.190;12.720;2023-02-12T10:00:10;62375.13;;;7.87;100.00
12694;BME280;6411;58.190;12.720;2023-02-12T10:02:39;62390.34;;;8.00;100.00
12694;BME280;6411;58.190;12.720;2023-02-12T10:05:17;62385.69;;;7.98;100.00
12694;BME280;6411;58.190;12.720;2023-02-12T10:10:53;62351.94;;;7.65;100.00
12694;BME280;6411;58.190;12.720;2023-02-12T10:13:30;62367.72;;;7.78;100.00
12694;BME280;6411;58.190;12.720;2023-02-12T10:24:36;62435.25;;;8.45;100.00
12694;BME280;6411;58.190;12.720;2023-02-12T10:27:10;62418.31;;;8.26;100.00
12694;BME280;6411;58.190;12.720;2023-02-12T10:29:38;62424.16;;;8.34;100.00
12694;BME280;6411;58.190;12.720;2023-02-12T10:32:23;62424.19;;;8.37;100.00
12694;BME280;6411;58.190;12.720;2023-02-12T10:34:50;62474.25;;;8.82;100.00
12694;BME280;6411;58.190;12.720;2023-02-12T10:37:38;62457.88;;;8.64;100.00
12694;BME280;6411;58.190;12.720;2023-02-12T10:40:26;62501.16;;;9.08;100.00
12694;BME280;6411;58.190;12.720;2023-02-12T10:42:55;62480.03;;;8.85;100.00
12694;BME280;6411;58.190;12.720;2023-02-12T10:45:35;62526.50;;;9.34;100.00
12694;BME280;6411;58.190;12.720;2023-02-12T10:53:21;62501.19;;;9.10;100.00
12694;BME280;6411;58.190;12.720;2023-02-12T10:55:47;62526.41;;;9.27;100.00
12694;BME280;6411;58.190;12.720;2023-02-12T10:58:19;62496.31;;;8.98;100.00
12694;BME280;6411;58.190;12.720;2023-02-12T11:00:45;62514.34;;;9.20;100.00
12694;BME280;6411;58.190;12.720;2023-02-12T11:05:42;62520.75;;;9.31;100.00
12694;BME280;6411;58.190;12.720;2023-02-12T11:10:51;62514.84;;;9.18;100.00
12694;BME280;6411;58.190;12.720;2023-02-12T11:13:22;62497.47;;;9.04;100.00
12694;BME280;6411;58.190;12.720;2023-02-12T11:15:50;62484.84;;;8.94;100.00
12694;BME280;6411;58.190;12.720;2023-02-12T11:18:30;62497.91;;;8.99;100.00
12694;BME280;6411;58.190;12.720;2023-02-12T11:21:06;62506.97;;;9.13;100.00
12694;BME280;6411;58.190;12.720;2023-02-12T11:23:35;62538.06;;;9.40;100.00
12694;BME280;6411;58.190;12.720;2023-02-12T11:36:43;62535.50;;;9.43;100.00
12694;BME280;6411;58.190;12.720;2023-02-12T11:39:32;62552.91;;;9.59;100.00
12694;BME280;6411;58.190;12.720;2023-02-12T11:42:03;62552.28;;;9.54;100.00
12694;BME280;6411;58.190;12.720;2023-02-12T11:44:37;62542.28;;;9.44;100.00
12694;BME280;6411;58.190;12.720;2023-02-12T11:47:07;62549.22;;;9.56;100.00
12694;BME280;6411;58.190;12.720;2023-02-12T11:49:48;62558.16;;;9.62;100.00
12694;BME280;6411;58.190;12.720;2023-02-12T11:52:20;62569.22;;;9.72;100.00
12694;BME280;6411;58.190;12.720;2023-02-12T11:54:47;62546.59;;;9.53;100.00
12694;BME280;6411;58.190;12.720;2023-02-12T12:00:16;62533.31;;;9.36;100.00
12694;BME280;6411;58.190;12.720;2023-02-12T12:02:50;62546.03;;;9.53;100.00
12694;BME280;6411;58.190;12.720;2023-02-12T12:05:20;62547.09;;;9.54;100.00
12694;BME280;6411;58.190;12.720;2023-02-12T12:07:55;62557.13;;;9.63;100.00
12694;BME280;6411;58.190;12.720;2023-02-12T12:10:48;62546.00;;;9.50;100.00
12694;BME280;6411;58.190;12.720;2023-02-12T12:13:24;62570.28;;;9.73;100.00
12694;BME280;6411;58.190;12.720;2023-02-12T12:16:03;60108.94;;;-139.41;100.00
12694;BME280;6411;58.190;12.720;2023-02-12T12:19:01;60108.94;;;-139.41;100.00
12694;BME280;6411;58.190;12.720;2023-02-12T12:27:09;60108.94;;;-139.41;100.00
12694;BME280;6411;58.190;12.720;2023-02-12T12:29:58;60108.94;;;-139.41;100.00
12694;BME280;6411;58.190;12.720;2023-02-12T12:32:33;60108.94;;;-139.41;100.00
12694;BME280;6411;58.190;12.720;2023-02-12T12:35:01;60108.94;;;-139.41;100.00
12694;BME280;6411;58.190;12.720;2023-02-12T12:37:35;60108.94;;;-139.41;100.00
12694;BME280;6411;58.190;12.720;2023-02-12T12:40:24;60108.94;;;-139.41;100.00
12694;BME280;6411;58.190;12.720;2023-02-12T12:43:11;60108.94;;;-139.41;100.00
12694;BME280;6411;58.190;12.720;2023-02-12T12:51:15;60108.94;;;-139.41;100.00
12694;BME280;6411;58.190;12.720;2023-02-12T12:53:58;60108.94;;;-139.41;100.00
12694;BME280;6411;58.190;12.720;2023-02-12T13:10:23;60108.94;;;-139.41;100.00
12694;BME280;6411;58.190;12.720;2023-02-12T13:18:50;60108.94;;;-139.41;100.00
12694;BME280;6411;58.190;12.720;2023-02-12T13:27:02;60108.94;;;-139.41;100.00
12694;BME280;6411;58.190;12.720;2023-02-12T13:29:34;60108.94;;;-139.41;100.00
12694;BME280;6411;58.190;12.720;2023-02-12T13:32:06;60108.94;;;-139.41;100.00
12694;BME280;6411;58.190;12.720;2023-02-12T13:34:40;60108.94;;;-139.41;100.00
12694;BME280;6411;58.190;12.720;2023-02-12T13:37:13;60108.94;;;-139.41;100.00
12694;BME280;6411;58.190;12.720;2023-02-12T13:39:42;60108.94;;;-139.41;100.00
12694;BME280;6411;58.190;12.720;2023-02-12T13:45:26;60108.94;;;-139.41;100.00
12694;BME280;6411;58.190;12.720;2023-02-12T13:57:00;60108.94;;;-139.41;100.00
12694;BME280;6411;58.190;12.720;2023-02-12T14:01:56;60108.94;;;-139.41;100.00
12694;BME280;6411;58.190;12.720;2023-02-12T14:04:31;60108.94;;;-139.41;100.00
12694;BME280;6411;58.190;12.720;2023-02-12T14:07:03;60108.94;;;-139.41;100.00
12694;BME280;6411;58.190;12.720;2023-02-12T14:09:39;60108.94;;;-139.41;100.00
12694;BME280;6411;58.190;12.720;2023-02-12T14:15:03;60108.94;;;-139.41;100.00
12694;BME280;6411;58.190;12.720;2023-02-12T14:27:53;60108.94;;;-139.41;100.00
12694;BME280;6411;58.190;12.720;2023-02-12T14:30:37;60108.94;;;-139.41;100.00
12694;BME280;6411;58.190;12.720;2023-02-12T14:35:45;60108.94;;;-139.41;100.00
12694;BME280;6411;58.190;12.720;2023-02-12T14:40:42;60108.94;;;-139.41;100.00
12694;BME280;6411;58.190;12.720;2023-02-12T14:48:53;60108.94;;;-139.41;100.00
12694;BME280;6411;58.190;12.720;2023-02-12T14:54:01;60108.94;;;-139.41;100.00
12694;BME280;6411;58.190;12.720;2023-02-12T14:56:32;60108.94;;;-139.41;100.00
12694;BME280;6411;58.190;12.720;2023-02-12T14:59:05;60108.94;;;-139.41;100.00
12694;BME280;6411;58.190;12.720;2023-02-12T15:01:34;60108.94;;;-139.41;100.00
12694;BME280;6411;58.190;12.720;2023-02-12T15:04:15;60108.94;;;-139.41;100.00
12694;BME280;6411;58.190;12.720;2023-02-12T15:06:50;60108.94;;;-139.41;100.00
12694;BME280;6411;58.190;12.720;2023-02-12T15:09:29;60108.94;;;-139.41;100.00
12694;BME280;6411;58.190;12.720;2023-02-12T15:12:04;60108.94;;;-139.41;100.00
12694;BME280;6411;58.190;12.720;2023-02-12T15:14:31;60108.94;;;-139.41;100.00
12694;BME280;6411;58.190;12.720;2023-02-12T15:17:10;60108.94;;;-139.41;100.00
12694;BME280;6411;58.190;12.720;2023-02-12T15:19:56;60108.94;;;-139.41;100.00
12694;BME280;6411;58.190;12.720;2023-02-12T15:25:27;60108.94;;;-139.41;100.00
12694;BME280;6411;58.190;12.720;2023-02-12T15:27:56;60108.94;;;-139.41;100.00
12694;BME280;6411;58.190;12.720;2023-02-12T15:30:30;60108.94;;;-139.41;100.00
12694;BME280;6411;58.190;12.720;2023-02-12T15:33:00;60108.94;;;-139.41;100.00
12694;BME280;6411;58.190;12.720;2023-02-12T15:35:30;60108.94;;;-139.41;100.00
12694;BME280;6411;58.190;12.720;2023-02-12T15:37:57;60108.94;;;-139.41;100.00
12694;BME280;6411;58.190;12.720;2023-02-12T15:40:30;60108.94;;;-139.41;100.00
12694;BME280;6411;58.190;12.720;2023-02-12T15:42:58;60108.94;;;-139.41;100.00
12694;BME280;6411;58.190;12.720;2023-02-12T15:45:26;60108.94;;;-139.41;100.00
12694;BME280;6411;58.190;12.720;2023-02-12T15:50:35;60108.94;;;-139.41;100.00
12694;BME280;6411;58.190;12.720;2023-02-12T15:53:10;60108.94;;;-139.41;100.00
12694;BME280;6411;58.190;12.720;2023-02-12T15:55:40;60108.94;;;-139.41;100.00
12694;BME280;6411;58.190;12.720;2023-02-12T15:58:21;60108.94;;;-139.41;100.00
12694;BME280;6411;58.190;12.720;2023-02-12T16:00:52;60108.94;;;-139.41;100.00